createdAt,value
2018-09-10T00:02:00.414Z,86.40
2018-09-10T00:04:34.449Z,87.40
2018-09-10T00:07:08.758Z,87.80
2018-09-10T00:09:42.894Z,89.30
2018-09-10T00:12:16.923Z,89.00
2018-09-10T00:14:51.891Z,89.10
2018-09-10T00:17:26.628Z,90.00
2018-09-10T00:20:00.781Z,90.00
2018-09-10T00:22:34.796Z,90.30
2018-09-10T00:25:09.534Z,90.30
2018-09-10T00:27:43.626Z,90.30
2018-09-10T00:30:17.764Z,90.40
2018-09-10T00:32:51.686Z,90.50
2018-09-10T00:35:25.902Z,91.20
2018-09-10T00:38:00.090Z,90.90
2018-09-10T00:40:34.309Z,91.40
2018-09-10T00:43:08.470Z,91.50
2018-09-10T00:45:42.597Z,93.40
2018-09-10T00:48:16.863Z,95.80
2018-09-10T00:50:50.989Z,96.30
2018-09-10T00:53:25.101Z,94.70
2018-09-10T00:55:59.261Z,95.10
2018-09-10T00:58:33.210Z,94.40
2018-09-10T01:01:07.280Z,94.70
2018-09-10T01:03:41.328Z,94.40
2018-09-10T01:06:15.298Z,94.40
2018-09-10T01:08:49.344Z,94.20
2018-09-10T01:11:23.333Z,93.60
2018-09-10T01:13:57.366Z,94.00
2018-09-10T01:16:31.301Z,94.60
2018-09-10T01:19:06.008Z,94.90
2018-09-10T01:21:40.145Z,94.90
2018-09-10T01:24:14.214Z,94.80
2018-09-10T01:26:48.377Z,94.90
2018-09-10T01:29:22.544Z,94.90
2018-09-10T01:31:56.583Z,94.60
2018-09-10T01:34:30.598Z,95.70
2018-09-10T01:37:04.686Z,95.60
2018-09-10T01:39:38.622Z,95.50
2018-09-10T01:42:12.685Z,95.40
2018-09-10T01:44:46.850Z,95.60
2018-09-10T01:47:20.999Z,95.80
2018-09-10T01:49:54.938Z,95.30
2018-09-10T01:52:29.070Z,96.00
2018-09-10T01:55:03.915Z,97.40
2018-09-10T01:57:38.733Z,96.80
2018-09-10T02:00:13.588Z,96.50
2018-09-10T02:02:47.679Z,96.50
2018-09-10T02:05:21.825Z,97.20
2018-09-10T02:07:55.969Z,97.10
2018-09-10T02:10:30.113Z,97.50
2018-09-10T02:13:04.283Z,97.70
2018-09-10T02:15:38.257Z,98.00
2018-09-10T02:18:12.367Z,98.50
2018-09-10T02:20:46.365Z,98.80
2018-09-10T02:23:20.336Z,98.70
2018-09-10T02:25:54.475Z,98.90
2018-09-10T02:28:28.498Z,99.10
2018-09-10T02:31:02.505Z,99.80
2018-09-10T02:33:37.245Z,99.90
2018-09-10T02:36:11.362Z,99.90
2018-09-10T02:38:46.092Z,99.90
2018-09-10T02:41:20.205Z,99.90
2018-09-10T02:43:54.377Z,99.90
2018-09-10T02:46:28.553Z,99.90
2018-09-10T02:49:02.658Z,99.90
2018-09-10T02:51:40.545Z,99.90
2018-09-10T02:54:14.468Z,99.90
2018-09-10T02:56:48.305Z,99.90
2018-09-10T02:59:22.297Z,99.90
2018-09-10T03:01:56.286Z,99.90
2018-09-10T03:04:30.429Z,99.90
2018-09-10T03:07:04.562Z,99.90
2018-09-10T03:09:38.637Z,99.70
2018-09-10T03:12:12.757Z,99.90
2018-09-10T03:14:47.599Z,99.90
2018-09-10T03:17:21.496Z,99.90
2018-09-10T03:19:55.551Z,99.90
2018-09-10T03:22:29.633Z,99.90
2018-09-10T03:25:03.749Z,99.90
2018-09-10T03:27:37.811Z,99.90
2018-09-10T03:30:11.926Z,99.90
2018-09-10T03:32:45.904Z,99.90
2018-09-10T03:35:20.032Z,99.90
2018-09-10T03:37:54.765Z,99.90
2018-09-10T03:40:28.845Z,99.90
2018-09-10T03:43:02.963Z,99.90
2018-09-10T03:45:37.193Z,99.90
2018-09-10T03:48:11.350Z,99.90
2018-09-10T03:50:45.421Z,99.90
2018-09-10T03:53:19.539Z,99.90
2018-09-10T03:55:53.654Z,99.90
2018-09-10T03:58:27.670Z,99.90
2018-09-10T04:01:01.575Z,99.90
2018-09-10T04:03:36.297Z,99.90
2018-09-10T04:06:10.409Z,99.90
2018-09-10T04:08:45.123Z,99.90
2018-09-10T04:11:19.185Z,99.90
2018-09-10T04:13:53.386Z,99.90
2018-09-10T04:16:27.396Z,99.90
2018-09-10T04:19:01.526Z,99.90
2018-09-10T04:21:36.439Z,99.90
2018-09-10T04:24:10.554Z,99.90
2018-09-10T04:26:44.478Z,99.90
2018-09-10T04:29:18.544Z,99.90
2018-09-10T04:31:52.561Z,99.90
2018-09-10T04:34:26.702Z,99.90
2018-09-10T04:37:00.699Z,99.90
2018-09-10T04:39:34.829Z,99.90
2018-09-10T04:42:08.975Z,99.90
2018-09-10T04:44:43.176Z,99.90
2018-09-10T04:47:17.366Z,99.90
2018-09-10T04:49:51.585Z,99.90
2018-09-10T04:52:25.655Z,99.90
2018-09-10T04:54:59.783Z,99.90
2018-09-10T04:57:33.909Z,99.90
2018-09-10T05:00:08.042Z,99.90
2018-09-10T05:02:42.137Z,99.90
2018-09-10T05:05:16.244Z,99.90
2018-09-10T05:07:50.381Z,99.90
2018-09-10T05:10:24.599Z,99.90
2018-09-10T05:12:58.661Z,99.90
2018-09-10T05:15:32.674Z,99.90
2018-09-10T05:18:06.723Z,99.90
2018-09-10T05:20:40.825Z,99.90
2018-09-10T05:23:14.821Z,99.90
2018-09-10T05:25:48.710Z,99.90
2018-09-10T05:28:22.855Z,99.90
2018-09-10T05:30:56.992Z,99.90
2018-09-10T05:33:31.114Z,99.90
2018-09-10T05:36:05.934Z,99.90
2018-09-10T05:38:40.018Z,99.90
2018-09-10T05:41:14.083Z,99.90
2018-09-10T05:43:48.190Z,99.90
2018-09-10T05:46:23.107Z,99.90
2018-09-10T05:48:57.223Z,99.90
2018-09-10T05:51:31.327Z,99.90
2018-09-10T05:54:05.440Z,99.90
2018-09-10T05:56:39.366Z,99.90
2018-09-10T05:59:13.481Z,99.90
2018-09-10T06:01:47.572Z,99.90
2018-09-10T06:04:22.414Z,99.90
2018-09-10T06:06:56.524Z,99.90
2018-09-10T06:09:30.570Z,99.90
2018-09-10T06:12:04.707Z,99.90
2018-09-10T06:14:38.864Z,99.90
2018-09-10T06:17:12.807Z,99.90
2018-09-10T06:19:46.772Z,99.90
2018-09-10T06:22:20.830Z,99.90
2018-09-10T06:24:55.581Z,99.90
2018-09-10T06:27:30.350Z,99.90
2018-09-10T06:30:04.433Z,99.90
2018-09-10T06:32:38.637Z,99.90
2018-09-10T06:35:12.593Z,99.90
2018-09-10T06:37:46.677Z,99.90
2018-09-10T06:40:20.822Z,99.90
2018-09-10T06:42:54.832Z,99.90
2018-09-10T06:45:28.749Z,99.90
2018-09-10T06:48:02.862Z,99.90
2018-09-10T06:50:36.828Z,99.90
2018-09-10T06:53:10.737Z,99.90
2018-09-10T06:55:44.897Z,99.90
2018-09-10T06:58:18.813Z,99.90
2018-09-10T07:00:52.934Z,99.90
2018-09-10T07:03:27.018Z,99.90
2018-09-10T07:06:01.049Z,99.90
2018-09-10T07:08:35.887Z,99.90
2018-09-10T07:11:09.877Z,99.90
2018-09-10T07:13:44.108Z,99.90
2018-09-10T07:16:18.181Z,99.90
2018-09-10T07:18:52.424Z,99.90
2018-09-10T07:21:26.409Z,99.90
2018-09-10T07:24:00.549Z,99.90
2018-09-10T07:26:34.664Z,99.90
2018-09-10T07:29:08.602Z,99.90
2018-09-10T07:31:42.815Z,99.90
2018-09-10T07:34:16.906Z,99.90
2018-09-10T07:36:51.030Z,99.90
2018-09-10T07:39:25.056Z,99.90
2018-09-10T07:41:59.101Z,99.90
2018-09-10T07:44:33.255Z,99.50
2018-09-10T07:47:07.997Z,98.10
2018-09-10T07:49:42.919Z,96.00
2018-09-10T07:52:16.790Z,95.80
2018-09-10T07:54:50.940Z,94.90
2018-09-10T07:57:24.911Z,94.40
2018-09-10T07:59:58.888Z,93.20
2018-09-10T08:02:33.075Z,91.40
2018-09-10T08:05:07.211Z,89.40
2018-09-10T08:07:41.390Z,87.60
2018-09-10T08:10:15.501Z,86.70
2018-09-10T08:12:49.542Z,87.20
2018-09-10T08:15:23.651Z,85.80
2018-09-10T08:17:57.794Z,85.50
2018-09-10T08:20:31.902Z,85.70
2018-09-10T08:23:06.007Z,84.90
2018-09-10T08:25:40.061Z,82.90
2018-09-10T08:28:14.175Z,81.20
2018-09-10T08:30:48.298Z,79.70
2018-09-10T08:33:22.409Z,77.50
2018-09-10T08:35:56.536Z,75.60
2018-09-10T08:38:30.586Z,74.30
2018-09-10T08:41:04.663Z,72.90
2018-09-10T08:43:38.775Z,71.00
2018-09-10T08:46:12.896Z,69.60
2018-09-10T08:48:46.949Z,69.60
2018-09-10T08:51:20.893Z,68.00
2018-09-10T08:53:54.906Z,68.00
2018-09-10T08:56:29.791Z,66.50
2018-09-10T08:59:03.999Z,66.50
2018-09-10T09:01:38.102Z,65.90
2018-09-10T09:04:12.014Z,66.50
2018-09-10T09:06:46.806Z,64.50
2018-09-10T09:09:21.726Z,65.80
2018-09-10T09:11:56.487Z,65.40
2018-09-10T09:14:30.594Z,65.30
2018-09-10T09:17:04.733Z,65.70
2018-09-10T09:19:38.913Z,65.30
2018-09-10T09:22:13.757Z,66.10
2018-09-10T09:24:48.453Z,64.80
2018-09-10T09:27:22.574Z,64.80
2018-09-10T09:29:56.644Z,65.10
2018-09-10T09:32:30.746Z,66.10
2018-09-10T09:35:05.573Z,66.20
2018-09-10T09:37:39.687Z,66.20
2018-09-10T09:40:14.485Z,66.70
2018-09-10T09:42:49.250Z,66.00
2018-09-10T09:45:23.366Z,66.00
2018-09-10T09:47:58.400Z,65.70
2018-09-10T09:50:32.358Z,65.30
2018-09-10T09:53:06.531Z,66.40
2018-09-10T09:55:40.596Z,67.00
2018-09-10T09:58:14.723Z,66.70
2018-09-10T10:00:48.878Z,65.40
2018-09-10T10:03:22.962Z,64.70
2018-09-10T10:05:57.125Z,64.70
2018-09-10T10:08:31.123Z,63.50
2018-09-10T10:11:05.324Z,62.70
2018-09-10T10:13:39.542Z,61.70
2018-09-10T10:16:13.776Z,62.40
2018-09-10T10:18:47.824Z,62.60
2018-09-10T10:21:21.941Z,62.50
2018-09-10T10:23:56.065Z,61.70
2018-09-10T10:26:30.998Z,60.60
2018-09-10T10:29:05.025Z,60.40
2018-09-10T10:31:39.726Z,61.30
2018-09-10T10:34:13.858Z,61.10
2018-09-10T10:36:47.763Z,60.60
2018-09-10T10:39:21.941Z,59.40
2018-09-10T10:41:55.992Z,60.00
2018-09-10T10:44:30.063Z,60.10
2018-09-10T10:47:04.301Z,59.00
2018-09-10T10:49:38.313Z,59.40
2018-09-10T10:52:12.238Z,59.40
2018-09-10T10:54:46.326Z,59.90
2018-09-10T10:57:20.424Z,59.30
2018-09-10T10:59:55.251Z,59.30
2018-09-10T11:02:29.989Z,58.40
2018-09-10T11:05:12.777Z,58.10
2018-09-10T11:07:46.830Z,58.00
2018-09-10T11:10:20.920Z,57.90
2018-09-10T11:12:55.761Z,59.00
2018-09-10T11:15:30.393Z,57.90
2018-09-10T11:18:04.305Z,57.90
2018-09-10T11:20:38.198Z,58.30
2018-09-10T11:23:12.214Z,58.80
2018-09-10T11:25:46.253Z,57.70
2018-09-10T11:28:20.249Z,58.50
2018-09-10T11:30:54.323Z,58.70
2018-09-10T11:33:29.276Z,58.80
2018-09-10T11:36:03.174Z,58.70
2018-09-10T11:38:37.194Z,57.30
2018-09-10T11:41:11.175Z,57.00
2018-09-10T11:43:45.216Z,57.90
2018-09-10T11:46:19.246Z,56.40
2018-09-10T11:48:53.226Z,56.60
2018-09-10T11:51:27.257Z,56.00
2018-09-10T11:54:01.345Z,56.10
2018-09-10T11:56:35.465Z,56.00
2018-09-10T11:59:09.476Z,55.60
2018-09-10T12:01:43.546Z,55.30
2018-09-10T12:04:17.494Z,56.40
2018-09-10T12:06:51.506Z,55.20
2018-09-10T12:09:25.555Z,55.80
2018-09-10T12:11:59.554Z,53.80
2018-09-10T12:14:33.570Z,53.80
2018-09-10T12:17:07.685Z,53.40
2018-09-10T12:19:41.614Z,55.70
2018-09-10T12:22:15.567Z,54.80
2018-09-10T12:24:49.620Z,54.70
2018-09-10T12:27:23.657Z,54.50
2018-09-10T12:29:57.666Z,54.30
2018-09-10T12:32:31.720Z,54.00
2018-09-10T12:35:05.817Z,52.40
2018-09-10T12:37:39.922Z,51.20
2018-09-10T12:40:14.034Z,51.00
2018-09-10T12:42:48.094Z,49.50
2018-09-10T12:45:22.178Z,49.50
2018-09-10T12:47:56.106Z,48.00
2018-09-10T12:50:30.155Z,47.70
2018-09-10T12:53:04.088Z,49.00
2018-09-10T12:55:38.138Z,48.50
2018-09-10T12:58:13.028Z,47.20
2018-09-10T13:00:47.059Z,47.20
2018-09-10T13:03:21.157Z,46.70
2018-09-10T13:05:55.205Z,46.80
2018-09-10T13:08:29.338Z,46.30
2018-09-10T13:11:03.349Z,45.80
2018-09-10T13:13:37.444Z,44.90
2018-09-10T13:16:12.163Z,43.70
2018-09-10T13:18:46.269Z,43.60
2018-09-10T13:21:20.231Z,42.10
2018-09-10T13:23:54.264Z,42.50
2018-09-10T13:26:28.350Z,42.30
2018-09-10T13:29:03.207Z,41.80
2018-09-10T13:31:38.013Z,42.10
2018-09-10T13:34:12.019Z,42.10
2018-09-10T13:36:46.206Z,41.50
2018-09-10T13:39:20.166Z,42.60
2018-09-10T13:41:54.267Z,41.20
2018-09-10T13:44:28.372Z,42.40
2018-09-10T13:47:02.467Z,41.10
2018-09-10T13:49:36.506Z,41.50
2018-09-10T13:52:10.623Z,41.70
2018-09-10T13:54:44.733Z,42.40
2018-09-10T13:57:18.858Z,42.40
2018-09-10T13:59:53.347Z,42.70
2018-09-10T14:02:27.310Z,42.30
2018-09-10T14:05:01.292Z,42.40
2018-09-10T14:07:35.404Z,41.80
2018-09-10T14:10:09.521Z,41.80
2018-09-10T14:12:43.621Z,42.00
2018-09-10T14:15:17.822Z,41.70
2018-09-10T14:17:52.705Z,40.90
2018-09-10T14:20:28.021Z,40.50
2018-09-10T14:23:02.742Z,40.50
2018-09-10T14:25:36.871Z,40.50
2018-09-10T14:28:11.978Z,39.80
2018-09-10T14:30:46.854Z,39.90
2018-09-10T14:33:21.651Z,39.90
2018-09-10T14:35:56.086Z,38.90
2018-09-10T14:38:30.077Z,39.40
2018-09-10T14:41:04.950Z,40.20
2018-09-10T14:43:38.910Z,40.20
2018-09-10T14:46:13.600Z,39.20
2018-09-10T14:48:47.757Z,39.20
2018-09-10T14:51:22.610Z,39.60
2018-09-10T14:53:57.446Z,39.60
2018-09-10T14:56:31.921Z,39.90
2018-09-10T14:59:06.131Z,40.10
2018-09-10T15:01:41.199Z,40.30
2018-09-10T15:04:15.259Z,40.70
2018-09-10T15:06:49.246Z,40.80
2018-09-10T15:09:23.354Z,40.70
2018-09-10T15:11:58.321Z,41.30
2018-09-10T15:14:32.443Z,41.30
2018-09-10T15:17:06.551Z,42.00
2018-09-10T15:19:40.610Z,41.90
2018-09-10T15:22:14.725Z,41.30
2018-09-10T15:24:48.834Z,41.60
2018-09-10T15:27:22.886Z,41.70
2018-09-10T15:29:57.002Z,41.80
2018-09-10T15:32:31.114Z,42.30
2018-09-10T15:38:18.137Z,41.90
2018-09-10T15:40:52.221Z,42.20
2018-09-10T15:43:26.274Z,42.50
2018-09-10T15:46:01.066Z,42.50
2018-09-10T15:48:34.995Z,42.50
2018-09-10T15:51:09.110Z,43.30
2018-09-10T15:53:43.210Z,43.20
2018-09-10T15:56:17.373Z,43.60
2018-09-10T15:58:52.880Z,43.50
2018-09-10T16:01:28.495Z,43.50
2018-09-10T16:04:05.606Z,43.80
2018-09-10T16:06:40.439Z,44.10
2018-09-10T16:09:14.659Z,44.10
2018-09-10T16:11:49.484Z,45.30
2018-09-10T16:14:36.598Z,45.20
2018-09-10T16:17:10.653Z,44.80
2018-09-10T16:19:49.410Z,44.80
2018-09-10T16:22:23.556Z,45.30
2018-09-10T16:24:57.494Z,45.30
2018-09-10T16:31:20.480Z,45.80
2018-09-10T16:33:54.698Z,45.80
2018-09-10T16:36:34.816Z,45.80
2018-09-10T16:39:08.743Z,46.10
2018-09-10T16:44:47.678Z,46.40
2018-09-10T16:47:25.462Z,46.60
2018-09-10T16:55:29.228Z,47.10
2018-09-10T16:58:03.184Z,47.60
2018-09-10T17:00:39.412Z,48.00
2018-09-10T17:06:33.518Z,48.30
2018-09-10T17:09:07.458Z,48.40
2018-09-10T17:11:41.478Z,48.80
2018-09-10T17:14:15.495Z,49.20
2018-09-10T17:16:49.535Z,49.30
2018-09-10T17:19:23.598Z,49.70
2018-09-10T17:21:57.618Z,49.80
2018-09-10T17:24:31.687Z,49.90
2018-09-10T17:27:05.948Z,50.00
2018-09-10T17:29:40.194Z,50.80
2018-09-10T17:32:14.387Z,51.70
2018-09-10T17:34:51.653Z,51.20
2018-09-10T17:37:25.745Z,51.60
2018-09-10T17:40:03.106Z,52.00
2018-09-10T17:42:36.958Z,52.40
2018-09-10T17:45:11.989Z,53.30
2018-09-10T17:47:45.866Z,53.20
2018-09-10T17:50:19.985Z,54.60
2018-09-10T17:52:54.093Z,55.70
2018-09-10T17:55:28.161Z,56.90
2018-09-10T17:58:03.296Z,55.00
2018-09-10T18:00:37.776Z,56.80
2018-09-10T18:03:12.715Z,57.90
2018-09-10T18:05:46.758Z,57.80
2018-09-10T18:08:20.852Z,59.70
2018-09-10T18:10:54.963Z,61.00
2018-09-10T18:13:29.027Z,59.40
2018-09-10T18:16:03.188Z,60.10
2018-09-10T18:18:37.277Z,59.00
2018-09-10T18:21:11.657Z,59.70
2018-09-10T18:23:45.627Z,60.90
2018-09-10T18:26:19.755Z,59.00
2018-09-10T18:28:53.780Z,59.50
2018-09-10T18:31:28.298Z,63.50
2018-09-10T18:34:02.357Z,59.70
2018-09-10T18:36:36.462Z,59.60
2018-09-10T18:39:10.535Z,59.30
2018-09-10T18:41:44.850Z,59.30
2018-09-10T18:44:19.354Z,59.30
2018-09-10T18:46:53.363Z,61.40
2018-09-10T18:49:27.840Z,59.60
2018-09-10T18:52:02.646Z,59.90
2018-09-10T18:54:36.671Z,59.80
2018-09-10T18:57:10.703Z,59.60
2018-09-10T18:59:44.747Z,60.60
2018-09-10T19:02:18.821Z,61.30
2018-09-10T19:04:52.883Z,59.70
2018-09-10T19:07:28.702Z,60.00
2018-09-10T19:10:03.768Z,59.80
2018-09-10T19:12:49.277Z,60.40
2018-09-10T19:15:23.300Z,60.20
2018-09-10T19:17:57.470Z,60.90
2018-09-10T19:20:32.322Z,61.30
2018-09-10T19:23:06.317Z,61.20
2018-09-10T19:25:40.525Z,61.60
2018-09-10T19:28:15.259Z,61.90
2018-09-10T19:30:49.393Z,61.80
2018-09-10T19:33:23.502Z,61.80
2018-09-10T19:35:57.498Z,61.90
2018-09-10T19:38:31.473Z,62.00
2018-09-10T19:41:05.539Z,61.80
2018-09-10T19:43:40.351Z,61.40
2018-09-10T19:46:14.430Z,61.40
2018-09-10T19:48:48.499Z,61.50
2018-09-10T19:51:22.645Z,61.80
2018-09-10T19:53:56.709Z,61.80
2018-09-10T19:56:30.794Z,61.40
2018-09-10T19:59:05.731Z,61.60
2018-09-10T20:01:39.675Z,61.90
2018-09-10T20:04:15.041Z,62.20
2018-09-10T20:06:50.750Z,62.50
2018-09-10T20:09:24.859Z,62.40
2018-09-10T20:11:58.950Z,62.50
2018-09-10T20:14:34.742Z,63.20
2018-09-10T20:17:11.032Z,62.50
2018-09-10T20:19:46.468Z,63.30
2018-09-10T20:22:21.822Z,63.40
2018-09-10T20:25:02.257Z,64.00
2018-09-10T20:27:36.159Z,64.30
2018-09-10T20:30:10.068Z,63.90
2018-09-10T20:32:44.073Z,64.30
2018-09-10T20:35:18.138Z,65.60
2018-09-10T20:37:52.286Z,66.50
2018-09-10T20:40:26.379Z,67.40
2018-09-10T20:43:00.426Z,67.90
2018-09-10T20:45:34.584Z,68.30
2018-09-10T20:48:08.514Z,67.50
2018-09-10T20:50:43.354Z,67.90
2018-09-10T20:53:17.437Z,67.90
2018-09-10T20:55:52.270Z,71.40
2018-09-10T20:58:26.429Z,71.20
2018-09-10T21:01:00.507Z,71.30
2018-09-10T21:03:35.240Z,69.80
2018-09-10T21:06:09.235Z,69.70
2018-09-10T21:08:43.289Z,69.90
2018-09-10T21:11:17.358Z,69.60
2018-09-10T21:13:51.450Z,69.20
2018-09-10T21:16:25.470Z,69.30
2018-09-10T21:18:59.509Z,68.70
2018-09-10T21:21:33.477Z,68.50
2018-09-10T21:24:20.442Z,71.40
2018-09-10T21:26:55.165Z,71.80
2018-09-10T21:29:29.285Z,71.70
2018-09-10T21:32:04.130Z,71.80
2018-09-10T21:34:38.304Z,71.80
2018-09-10T21:37:12.953Z,73.80
2018-09-10T21:39:47.017Z,73.80
2018-09-10T21:42:21.101Z,74.60
2018-09-10T21:44:55.145Z,73.00
2018-09-10T21:47:30.062Z,74.60
2018-09-10T21:50:04.131Z,74.50
2018-09-10T21:52:38.197Z,75.40
2018-09-10T21:55:12.258Z,75.70
2018-09-10T21:57:47.129Z,75.00
2018-09-10T22:00:21.282Z,75.00
2018-09-10T22:02:55.341Z,75.60
2018-09-10T22:05:30.150Z,77.50
2018-09-10T22:08:04.273Z,77.00
2018-09-10T22:10:38.365Z,77.40
2018-09-10T22:13:13.037Z,78.60
2018-09-10T22:15:46.958Z,78.50
2018-09-10T22:18:20.974Z,78.80
2018-09-10T22:20:55.789Z,80.00
2018-09-10T22:23:30.202Z,79.90
2018-09-10T22:26:05.077Z,82.70
2018-09-10T22:28:39.245Z,82.60
2018-09-10T22:31:13.401Z,81.60
2018-09-10T22:33:48.740Z,80.40
2018-09-10T22:36:22.929Z,79.90
2018-09-10T22:38:56.908Z,81.10
2018-09-10T22:41:31.841Z,83.60
2018-09-10T22:44:05.877Z,83.60
2018-09-10T22:46:39.962Z,83.40
2018-09-10T22:49:14.015Z,83.10
2018-09-10T22:51:48.170Z,83.60
2018-09-10T22:54:22.271Z,83.00
2018-09-10T22:56:56.302Z,86.90
2018-09-10T22:59:30.361Z,89.00
2018-09-10T23:02:04.427Z,87.80
2018-09-10T23:04:39.205Z,88.40
2018-09-10T23:07:13.294Z,88.30
2018-09-10T23:09:47.332Z,88.20
2018-09-10T23:12:21.401Z,88.60
2018-09-10T23:14:55.521Z,88.70
2018-09-10T23:17:29.651Z,90.20
2018-09-10T23:20:03.738Z,89.90
2018-09-10T23:22:38.597Z,90.30
2018-09-10T23:25:13.418Z,90.90
2018-09-10T23:27:47.570Z,90.90
2018-09-10T23:30:21.568Z,91.20
2018-09-10T23:32:55.647Z,90.70
2018-09-10T23:35:29.682Z,90.70
2018-09-10T23:38:04.619Z,90.90
2018-09-10T23:40:39.445Z,90.90
2018-09-10T23:43:13.623Z,90.90
2018-09-10T23:45:47.630Z,91.50
2018-09-10T23:48:21.716Z,92.00
2018-09-10T23:50:56.522Z,92.30
2018-09-10T23:53:30.598Z,92.20
2018-09-10T23:56:04.732Z,92.00
2018-09-10T23:58:38.886Z,92.00
